createdAt,value
2023-06-07T00:01:55.048Z,16.41
2023-06-07T00:04:22.085Z,16.42
2023-06-07T00:06:51.028Z,16.43
2023-06-07T00:09:17.497Z,16.44
2023-06-07T00:11:44.313Z,16.44
2023-06-07T00:14:10.784Z,16.47
2023-06-07T00:16:40.328Z,16.47
2023-06-07T00:19:06.798Z,16.47
2023-06-07T00:21:33.247Z,16.46
2023-06-07T00:23:59.727Z,16.45
2023-06-07T00:26:26.262Z,16.46
2023-06-07T00:28:52.992Z,16.47
2023-06-07T00:31:19.397Z,16.47
2023-06-07T00:33:45.959Z,16.47
2023-06-07T00:36:12.366Z,16.43
2023-06-07T00:38:38.790Z,16.40
2023-06-07T00:41:05.217Z,16.38
2023-06-07T00:43:33.988Z,16.37
2023-06-07T00:46:00.667Z,16.38
2023-06-07T00:48:28.423Z,16.38
2023-06-07T00:50:54.933Z,16.38
2023-06-07T00:53:21.746Z,16.38
2023-06-07T00:55:48.400Z,16.38
2023-06-07T00:58:14.853Z,16.38
2023-06-07T01:03:42.040Z,16.30
2023-06-07T01:06:08.493Z,16.28
2023-06-07T01:08:35.066Z,16.28
2023-06-07T01:11:02.167Z,16.30
2023-06-07T01:13:29.889Z,16.30
2023-06-07T01:15:56.450Z,16.29
2023-06-07T01:18:23.191Z,16.27
2023-06-07T01:20:52.711Z,16.26
2023-06-07T01:23:19.243Z,16.25
2023-06-07T01:25:45.770Z,16.25
2023-06-07T01:28:12.530Z,16.26
2023-06-07T01:30:39.364Z,16.27
2023-06-07T01:33:06.390Z,16.29
2023-06-07T01:35:33.472Z,16.31
2023-06-07T01:38:00.807Z,16.32
2023-06-07T01:40:27.776Z,16.33
2023-06-07T01:42:54.740Z,16.33
2023-06-07T01:45:21.280Z,16.29
2023-06-07T01:47:47.671Z,16.26
2023-06-07T01:50:20.094Z,16.23
2023-06-07T01:52:46.434Z,16.22
2023-06-07T01:55:12.865Z,16.22
2023-06-07T01:58:05.301Z,16.21
2023-06-07T02:00:35.695Z,16.22
2023-06-07T02:03:05.278Z,16.24
2023-06-07T02:05:37.193Z,16.23
2023-06-07T02:08:07.756Z,16.25
2023-06-07T02:10:35.332Z,16.25
2023-06-07T02:13:03.506Z,16.23
2023-06-07T02:15:29.925Z,16.20
2023-06-07T02:17:59.388Z,16.17
2023-06-07T02:20:26.648Z,16.16
2023-06-07T02:22:54.717Z,16.18
2023-06-07T02:25:21.204Z,16.20
2023-06-07T02:27:49.223Z,16.22
2023-06-07T02:30:15.724Z,16.21
2023-06-07T02:32:42.559Z,16.20
2023-06-07T02:35:09.115Z,16.21
2023-06-07T02:37:35.587Z,16.20
2023-06-07T02:40:02.532Z,16.20
2023-06-07T02:42:30.538Z,16.22
2023-06-07T02:44:57.153Z,16.25
2023-06-07T02:47:23.713Z,16.27
2023-06-07T02:49:50.431Z,16.27
2023-06-07T02:52:16.782Z,16.27
2023-06-07T02:54:43.182Z,16.27
2023-06-07T02:57:09.574Z,16.26
2023-06-07T02:59:35.990Z,16.26
2023-06-07T03:02:02.549Z,16.27
2023-06-07T03:04:29.590Z,16.28
2023-06-07T03:06:57.846Z,16.28
2023-06-07T03:09:28.671Z,16.27
2023-06-07T03:11:55.187Z,16.27
2023-06-07T03:14:22.451Z,16.27
2023-06-07T03:16:49.429Z,16.27
2023-06-07T03:19:16.310Z,16.29
2023-06-07T03:21:42.949Z,16.29
2023-06-07T03:24:09.523Z,16.32
2023-06-07T03:26:36.363Z,16.33
2023-06-07T03:29:03.000Z,16.38
2023-06-07T03:31:33.076Z,16.43
2023-06-07T03:34:02.718Z,16.47
2023-06-07T03:36:29.425Z,16.52
2023-06-07T03:38:57.066Z,16.57
2023-06-07T03:41:23.641Z,16.60
2023-06-07T03:43:50.592Z,16.63
2023-06-07T03:46:17.141Z,16.67
2023-06-07T03:48:44.017Z,16.70
2023-06-07T03:51:10.440Z,16.76
2023-06-07T03:53:38.727Z,16.80
2023-06-07T03:56:05.537Z,16.85
2023-06-07T03:58:32.585Z,16.88
2023-06-07T04:01:04.258Z,16.90
2023-06-07T04:03:30.784Z,16.93
2023-06-07T04:05:59.803Z,16.97
2023-06-07T04:08:27.258Z,17.01
2023-06-07T04:10:53.715Z,17.05
2023-06-07T04:13:20.215Z,17.10
2023-06-07T04:15:46.889Z,17.16
2023-06-07T04:18:13.416Z,17.23
2023-06-07T04:20:40.380Z,17.29
2023-06-07T04:23:07.421Z,17.36
2023-06-07T04:25:33.960Z,17.43
2023-06-07T04:28:02.235Z,17.52
2023-06-07T04:30:29.589Z,17.63
2023-06-07T04:32:56.083Z,17.71
2023-06-07T04:35:22.962Z,17.81
2023-06-07T04:37:49.675Z,17.92
2023-06-07T04:40:16.390Z,18.04
2023-06-07T04:42:53.348Z,18.12
2023-06-07T04:45:19.963Z,18.20
2023-06-07T04:47:46.620Z,18.28
2023-06-07T04:50:14.528Z,18.32
2023-06-07T04:52:40.925Z,18.38
2023-06-07T04:55:07.615Z,18.44
2023-06-07T04:57:34.267Z,18.50
2023-06-07T05:00:00.815Z,18.55
2023-06-07T05:02:34.484Z,18.61
2023-06-07T05:05:00.878Z,18.69
2023-06-07T05:07:28.047Z,18.78
2023-06-07T05:09:55.345Z,18.87
2023-06-07T05:12:22.608Z,18.93
2023-06-07T05:14:50.252Z,19.01
2023-06-07T05:17:17.057Z,19.07
2023-06-07T05:19:43.437Z,19.15
2023-06-07T05:22:10.086Z,19.22
2023-06-07T05:24:36.854Z,19.34
2023-06-07T05:27:03.348Z,19.49
2023-06-07T05:29:29.787Z,19.60
2023-06-07T05:31:56.855Z,19.70
2023-06-07T05:34:23.435Z,19.82
2023-06-07T05:36:49.987Z,19.96
2023-06-07T05:39:16.450Z,20.08
2023-06-07T05:41:44.218Z,20.21
2023-06-07T05:44:10.767Z,20.32
2023-06-07T05:46:37.302Z,20.40
2023-06-07T05:49:03.781Z,20.43
2023-06-07T05:51:30.320Z,20.42
2023-06-07T05:53:56.706Z,20.40
2023-06-07T05:56:23.079Z,20.38
2023-06-07T05:58:49.493Z,20.37
2023-06-07T06:01:16.059Z,20.38
2023-06-07T06:03:42.497Z,20.38
2023-06-07T06:06:12.722Z,20.42
2023-06-07T06:08:39.205Z,20.44
2023-06-07T06:11:05.678Z,20.49
2023-06-07T06:13:32.565Z,20.54
2023-06-07T06:15:58.989Z,20.60
2023-06-07T06:18:25.541Z,20.62
2023-06-07T06:20:51.948Z,20.63
2023-06-07T06:23:18.444Z,20.59
2023-06-07T06:25:45.028Z,20.59
2023-06-07T06:28:11.481Z,20.61
2023-06-07T06:30:38.031Z,20.64
2023-06-07T06:33:04.490Z,20.67
2023-06-07T06:35:30.880Z,20.79
2023-06-07T06:37:57.413Z,20.93
2023-06-07T06:40:24.036Z,21.04
2023-06-07T06:42:50.424Z,21.13
2023-06-07T06:45:22.433Z,21.24
2023-06-07T06:47:48.918Z,21.35
2023-06-07T06:50:31.438Z,21.46
2023-06-07T06:52:59.868Z,21.53
2023-06-07T06:55:26.314Z,21.60
2023-06-07T06:57:52.712Z,21.65
2023-06-07T07:00:19.438Z,21.71
2023-06-07T07:02:46.022Z,21.83
2023-06-07T07:05:12.514Z,21.91
2023-06-07T07:07:38.971Z,21.99
2023-06-07T07:10:06.358Z,22.11
2023-06-07T07:12:32.937Z,22.24
2023-06-07T07:14:59.463Z,22.37
2023-06-07T07:17:25.913Z,22.43
2023-06-07T07:19:52.405Z,22.53
2023-06-07T07:22:18.890Z,22.72
2023-06-07T07:24:45.298Z,22.90
2023-06-07T07:27:11.740Z,23.02
2023-06-07T07:29:38.207Z,23.18
2023-06-07T07:32:04.916Z,23.25
2023-06-07T07:34:31.388Z,23.42
2023-06-07T07:36:57.859Z,23.62
2023-06-07T07:39:24.233Z,23.77
2023-06-07T07:41:50.613Z,23.89
2023-06-07T07:44:19.845Z,24.00
2023-06-07T07:46:46.278Z,24.15
2023-06-07T07:49:12.730Z,24.26
2023-06-07T07:51:39.251Z,24.35
2023-06-07T07:54:06.346Z,24.49
2023-06-07T07:56:32.725Z,24.59
2023-06-07T07:58:59.160Z,24.74
2023-06-07T08:01:25.541Z,24.89
2023-06-07T08:03:52.137Z,25.03
2023-06-07T08:06:18.829Z,25.16
2023-06-07T08:08:48.261Z,25.34
2023-06-07T08:11:14.723Z,25.58
2023-06-07T08:13:41.293Z,25.76
2023-06-07T08:16:07.756Z,25.89
2023-06-07T08:18:34.110Z,26.03
2023-06-07T08:21:00.750Z,26.05
2023-06-07T08:23:27.234Z,26.16
2023-06-07T08:25:53.641Z,26.29
2023-06-07T08:28:20.035Z,26.45
2023-06-07T08:30:46.548Z,26.64
2023-06-07T08:33:12.993Z,26.70
2023-06-07T08:35:39.442Z,26.63
2023-06-07T08:38:05.811Z,26.66
2023-06-07T08:40:32.905Z,26.74
2023-06-07T08:42:59.316Z,26.82
2023-06-07T08:45:25.698Z,26.83
2023-06-07T08:47:52.178Z,26.82
2023-06-07T08:50:21.182Z,26.89
2023-06-07T08:52:50.102Z,26.94
2023-06-07T08:55:16.865Z,27.07
2023-06-07T08:57:46.159Z,27.12
2023-06-07T09:00:13.130Z,27.27
2023-06-07T09:02:39.784Z,27.39
2023-06-07T09:05:06.860Z,27.50
2023-06-07T09:07:33.958Z,27.53
2023-06-07T09:10:00.426Z,27.61
2023-06-07T09:12:26.841Z,27.78
2023-06-07T09:14:53.900Z,27.84
2023-06-07T09:17:20.415Z,27.88
2023-06-07T09:19:46.880Z,28.06
2023-06-07T09:22:13.542Z,28.21
2023-06-07T09:24:40.338Z,28.18
2023-06-07T09:27:07.412Z,28.09
2023-06-07T09:29:43.454Z,28.12
2023-06-07T09:32:22.644Z,28.11
2023-06-07T09:34:52.069Z,28.17
2023-06-07T09:37:19.390Z,28.29
2023-06-07T09:39:45.898Z,28.50
2023-06-07T09:42:15.864Z,28.55
2023-06-07T09:44:42.624Z,28.43
2023-06-07T09:47:29.505Z,28.44
2023-06-07T09:50:05.824Z,28.56
2023-06-07T09:52:32.471Z,28.70
2023-06-07T09:54:58.862Z,28.56
2023-06-07T09:57:25.255Z,28.60
2023-06-07T09:59:58.959Z,28.83
2023-06-07T10:02:26.543Z,28.98
2023-06-07T10:04:54.427Z,28.91
2023-06-07T10:07:27.041Z,28.85
2023-06-07T10:09:54.045Z,28.72
2023-06-07T10:12:22.368Z,28.88
2023-06-07T10:14:49.304Z,29.27
2023-06-07T10:17:16.803Z,29.69
2023-06-07T10:19:49.561Z,30.03
2023-06-07T10:22:20.111Z,29.99
2023-06-07T10:24:56.973Z,30.02
2023-06-07T10:27:24.223Z,29.84
2023-06-07T10:30:01.961Z,29.98
2023-06-07T10:32:29.485Z,30.15
2023-06-07T10:34:56.583Z,30.14
2023-06-07T10:40:01.523Z,30.60
2023-06-07T10:53:51.883Z,33.61
2023-06-07T10:56:53.426Z,33.73
2023-06-07T10:59:20.865Z,33.87
2023-06-07T11:01:48.639Z,33.13
2023-06-07T11:04:33.759Z,33.06
2023-06-07T11:07:16.719Z,33.22
2023-06-07T11:09:47.769Z,32.77
2023-06-07T11:20:04.434Z,35.95
2023-06-07T11:22:52.462Z,36.58
2023-06-07T11:45:07.803Z,36.69
2023-06-07T12:28:26.329Z,36.15
2023-06-07T12:30:52.923Z,37.40
2023-06-07T12:33:19.409Z,37.12
2023-06-07T12:35:46.710Z,36.59
2023-06-07T12:38:13.196Z,36.10
2023-06-07T12:40:39.642Z,35.88
2023-06-07T12:43:06.160Z,35.40
2023-06-07T12:45:32.572Z,35.25
2023-06-07T12:48:00.002Z,36.74
2023-06-07T12:50:29.802Z,38.02
2023-06-07T12:52:59.051Z,39.16
2023-06-07T12:55:26.624Z,40.00
2023-06-07T12:57:55.913Z,40.58
2023-06-07T13:00:29.204Z,41.07
2023-06-07T13:02:58.868Z,41.46
2023-06-07T13:05:25.664Z,41.99
2023-06-07T13:07:52.103Z,42.56
2023-06-07T13:10:18.559Z,42.10
2023-06-07T13:12:44.945Z,42.13
2023-06-07T13:15:11.390Z,43.14
2023-06-07T13:17:38.176Z,43.21
2023-06-07T13:20:05.350Z,43.34
2023-06-07T13:22:32.274Z,43.92
2023-06-07T13:24:59.122Z,43.58
2023-06-07T13:27:25.549Z,43.23
2023-06-07T14:00:31.031Z,46.64
2023-06-07T14:02:57.519Z,46.06
2023-06-07T14:05:23.972Z,44.54
2023-06-07T14:07:50.491Z,44.72
2023-06-07T14:10:16.917Z,44.18
2023-06-07T14:12:43.321Z,44.22
2023-06-07T14:15:10.002Z,43.88
2023-06-07T14:17:36.432Z,44.68
2023-06-07T14:20:03.040Z,45.19
2023-06-07T14:22:29.656Z,45.70
2023-06-07T14:24:56.039Z,45.89
2023-06-07T14:27:22.661Z,46.08
2023-06-07T14:29:49.061Z,44.98
2023-06-07T14:32:15.751Z,43.20
2023-06-07T14:34:42.327Z,43.42
2023-06-07T14:37:08.734Z,43.95
2023-06-07T14:39:37.451Z,44.48
2023-06-07T14:42:03.976Z,43.69
2023-06-07T14:44:30.476Z,42.99
2023-06-07T14:46:56.909Z,43.76
2023-06-07T14:49:23.320Z,44.26
2023-06-07T14:51:49.724Z,44.80
2023-06-07T14:54:18.910Z,45.61
2023-06-07T14:56:45.490Z,45.79
2023-06-07T14:59:13.855Z,44.48
2023-06-07T15:01:41.646Z,42.36
2023-06-07T15:04:08.611Z,40.95
2023-06-07T15:06:35.339Z,41.42
2023-06-07T15:09:02.127Z,41.70
2023-06-07T15:11:28.932Z,42.25
2023-06-07T15:13:55.874Z,42.58
2023-06-07T16:35:31.345Z,31.27
2023-06-07T16:38:46.461Z,31.89
2023-06-07T16:48:36.743Z,31.32
2023-06-07T16:52:06.937Z,31.18
2023-06-07T16:57:23.893Z,30.80
2023-06-07T16:59:52.380Z,30.37
2023-06-07T17:02:24.135Z,29.97
2023-06-07T17:05:02.458Z,29.60
2023-06-07T17:07:53.986Z,29.33
2023-06-07T17:10:29.656Z,29.12
2023-06-07T17:13:01.268Z,28.88
2023-06-07T17:15:27.708Z,28.54
2023-06-07T17:17:54.159Z,28.13
2023-06-07T17:20:20.526Z,27.74
2023-06-07T17:22:46.946Z,27.47
2023-06-07T17:25:13.371Z,27.18
2023-06-07T17:27:39.659Z,26.85
2023-06-07T17:30:09.053Z,26.53
2023-06-07T17:32:35.687Z,26.25
2023-06-07T17:35:05.596Z,26.00
2023-06-07T17:37:32.043Z,25.77
2023-06-07T17:39:58.722Z,25.55
2023-06-07T17:42:25.215Z,25.36
2023-06-07T17:44:51.972Z,25.25
2023-06-07T17:47:18.969Z,25.12
2023-06-07T17:49:45.727Z,24.96
2023-06-07T17:52:21.568Z,24.82
2023-06-07T17:54:51.224Z,24.65
2023-06-07T17:57:17.745Z,24.51
2023-06-07T17:59:45.021Z,24.42
2023-06-07T18:02:11.565Z,24.30
2023-06-07T18:04:38.360Z,24.17
2023-06-07T18:07:05.300Z,24.03
2023-06-07T18:09:34.741Z,23.87
2023-06-07T18:12:01.600Z,23.70
2023-06-07T18:14:28.408Z,23.53
2023-06-07T18:16:57.586Z,23.33
2023-06-07T18:19:24.373Z,23.15
2023-06-07T18:21:53.562Z,22.98
2023-06-07T18:24:24.270Z,22.84
2023-06-07T18:26:50.929Z,22.71
2023-06-07T18:29:17.556Z,22.60
2023-06-07T18:31:44.057Z,22.50
2023-06-07T18:34:10.897Z,22.40
2023-06-07T18:36:37.592Z,22.33
2023-06-07T18:39:04.038Z,22.30
2023-06-07T18:41:33.875Z,22.24
2023-06-07T18:44:00.377Z,22.19
2023-06-07T18:46:27.120Z,22.15
2023-06-07T18:48:53.634Z,22.04
2023-06-07T18:51:20.108Z,21.87
2023-06-07T18:53:46.469Z,21.72
2023-06-07T18:59:14.180Z,21.47
2023-06-07T19:01:51.389Z,21.34
2023-06-07T19:04:19.152Z,21.22
2023-06-07T19:06:50.434Z,21.12
2023-06-07T19:09:21.357Z,21.06
2023-06-07T19:11:47.766Z,21.04
2023-06-07T19:14:14.464Z,21.01
2023-06-07T19:16:41.181Z,20.97
2023-06-07T19:19:07.954Z,20.92
2023-06-07T19:21:34.446Z,20.84
2023-06-07T19:24:04.097Z,20.74
2023-06-07T19:26:31.034Z,20.64
2023-06-07T19:28:58.705Z,20.56
2023-06-07T19:31:25.316Z,20.47
2023-06-07T19:33:52.225Z,20.40
2023-06-07T19:36:18.728Z,20.34
2023-06-07T19:38:45.119Z,20.28
2023-06-07T19:41:26.784Z,20.22
2023-06-07T19:43:53.587Z,20.15
2023-06-07T19:46:20.027Z,20.08
2023-06-07T19:48:46.569Z,19.98
2023-06-07T19:51:13.326Z,19.87
2023-06-07T19:53:39.850Z,19.81
2023-06-07T19:56:06.275Z,19.74
2023-06-07T19:58:32.720Z,19.66
2023-06-07T20:00:59.183Z,19.55
2023-06-07T20:03:25.848Z,19.44
2023-06-07T20:05:53.478Z,19.33
2023-06-07T20:08:19.875Z,19.24
2023-06-07T20:10:46.525Z,19.18
2023-06-07T20:13:13.588Z,19.15
2023-06-07T20:15:40.148Z,19.08
2023-06-07T20:18:06.617Z,19.00
2023-06-07T20:20:33.331Z,18.98
2023-06-07T20:23:00.856Z,18.96
2023-06-07T20:25:27.365Z,18.94
2023-06-07T20:27:54.244Z,18.91
2023-06-07T20:30:20.777Z,18.87
2023-06-07T20:32:47.350Z,18.84
2023-06-07T20:35:14.095Z,18.81
2023-06-07T20:40:41.874Z,18.69
2023-06-07T20:43:08.386Z,18.63
2023-06-07T20:45:34.914Z,18.56
2023-06-07T20:48:01.700Z,18.46
2023-06-07T20:50:28.264Z,18.35
2023-06-07T20:52:54.726Z,18.26
2023-06-07T20:55:21.184Z,18.20
2023-06-07T20:57:48.255Z,18.18
2023-06-07T21:00:14.861Z,18.12
2023-06-07T21:02:41.455Z,18.04
2023-06-07T21:05:08.153Z,17.97
2023-06-07T21:07:34.874Z,17.91
2023-06-07T21:10:01.410Z,17.86
2023-06-07T21:12:28.279Z,17.78
2023-06-07T21:14:54.704Z,17.73
2023-06-07T21:17:21.501Z,17.69
2023-06-07T21:19:48.042Z,17.65
2023-06-07T21:22:14.523Z,17.59
2023-06-07T21:24:40.925Z,17.56
2023-06-07T21:27:07.424Z,17.49
2023-06-07T21:29:34.060Z,17.40
2023-06-07T21:32:00.796Z,17.31
2023-06-07T21:34:27.648Z,17.20
2023-06-07T21:36:54.034Z,17.12
2023-06-07T21:39:20.498Z,17.05
2023-06-07T21:41:46.981Z,17.00
2023-06-07T21:44:13.371Z,17.00
2023-06-07T21:46:39.872Z,17.04
2023-06-07T21:49:06.439Z,17.08
2023-06-07T21:52:04.679Z,17.07
2023-06-07T21:54:31.302Z,17.02
2023-06-07T21:57:14.382Z,17.00
2023-06-07T21:59:41.691Z,17.03
2023-06-07T22:02:09.511Z,17.04
2023-06-07T22:04:36.062Z,17.01
2023-06-07T22:07:09.686Z,17.00
2023-06-07T22:09:38.382Z,16.91
2023-06-07T22:12:14.239Z,16.80
2023-06-07T22:14:40.879Z,16.74
2023-06-07T22:17:07.341Z,16.67
2023-06-07T22:19:33.839Z,16.60
2023-06-07T22:22:00.292Z,16.61
2023-06-07T22:24:26.710Z,16.61
2023-06-07T22:26:53.801Z,16.63
2023-06-07T22:29:20.184Z,16.63
2023-06-07T22:31:46.894Z,16.62
2023-06-07T22:34:14.370Z,16.61
2023-06-07T22:36:40.821Z,16.58
2023-06-07T22:39:08.893Z,16.54
2023-06-07T22:41:35.408Z,16.48
2023-06-07T22:44:01.984Z,16.42
2023-06-07T22:46:28.591Z,16.35
2023-06-07T22:48:55.184Z,16.30
2023-06-07T22:51:21.820Z,16.26
2023-06-07T22:53:48.146Z,16.22
2023-06-07T22:56:14.957Z,16.18
2023-06-07T22:58:41.543Z,16.12
2023-06-07T23:01:07.920Z,16.06
2023-06-07T23:03:34.506Z,16.02
2023-06-07T23:06:01.523Z,16.00
2023-06-07T23:08:28.169Z,15.97
2023-06-07T23:10:55.143Z,15.92
2023-06-07T23:13:22.741Z,15.89
2023-06-07T23:15:49.430Z,15.86
2023-06-07T23:18:16.342Z,15.80
2023-06-07T23:20:43.587Z,15.77
2023-06-07T23:23:10.218Z,15.76
2023-06-07T23:25:36.640Z,15.77
2023-06-07T23:28:03.039Z,15.79
2023-06-07T23:30:29.709Z,15.77
2023-06-07T23:32:56.332Z,15.73
2023-06-07T23:35:23.046Z,15.67
2023-06-07T23:37:49.559Z,15.59
2023-06-07T23:40:16.042Z,15.53
2023-06-07T23:42:42.941Z,15.48
2023-06-07T23:45:09.591Z,15.44
2023-06-07T23:47:36.158Z,15.41
2023-06-07T23:50:06.665Z,15.41
2023-06-07T23:52:33.471Z,15.38
2023-06-07T23:54:59.904Z,15.36
2023-06-07T23:57:26.615Z,15.33
2023-06-07T23:59:52.965Z,15.31
